Unbenanntes Dokument
Flugplatz Bielefeld Platzwetter

 

Aktuelles Platzwetter am Flugplatz Bielefeld EDLI

24.03.19 ,19:32 Uhr

METAR EDLI 241932Z VRB01KT 9999 03/M01 Q1023

 

Windwerte

 

Wolkenuntergrenzen

Wind aktuell:360 ° mit 1 kt
Wind 10 min Extrem:
350 ° bis 60 ° mit 1 kt bis 1 kt
Seitenwindkomponente: -0.6 kt
Wolkengrenze 1:
Wolkengrenze 2:
Wolkengrenze 3:

Webcam

Temperatur

       

Sichtweite:

20.000 Meter

3.6 °C
Taupunkt: -1.5 °C
Luftfeuchtigkeit: 69 %

Luftdruck:

QNH: 1023 hPa (30.21 in Hg)
QFE: 1006 hPa (29.71 in Hg)

Diese Daten werden automatisch ermittelt bzw. übertragen und sind nicht geprüft. Für die Richtigkeit wird daher keine Gewähr übernommen. Sie ersetzen im übrigen nicht die Flugwetterberatung. Alle Zeitangaben beziehen sich auf UTC. Die Seite wird einmal die Minute aktualisiert! Sollten Sie ein ältere Seite haben, so drücken Sie bitte auf den Reload Button Ihres Browsers!